Time;durP1;ratioP1;P1;durP2;ratioP2;P2;SDS_P1;SDS_P2;PMS_P1;PMS_P2;Temp;Humidity;BMP_temperature;BMP_pressure;BME280_temperature;BME280_humidity;BME280_pressure;Samples;Min_cycle;Max_cycle;Signal;HPM_P1;HPM_P2
2020/12/10 00:08:45;;;;;;;8.68;2.85;;;11.20;62.50;;;;;;20858394;28;20037;-79
2020/12/10 00:18:46;;;;;;;5.18;2.78;;;11.20;62.60;;;;;;20805361;28;20045;-79
2020/12/10 00:28:47;;;;;;;4.20;2.35;;;11.20;62.50;;;;;;20828945;28;20501;-78
2020/12/10 00:38:48;;;;;;;4.53;2.22;;;11.30;62.60;;;;;;20850446;28;20086;-79
2020/12/10 00:48:50;;;;;;;7.80;2.95;;;11.20;62.50;;;;;;20845969;28;20120;-79
2020/12/10 00:58:51;;;;;;;3.78;2.00;;;11.20;62.60;;;;;;20829405;28;20033;-78
2020/12/10 01:08:51;;;;;;;6.63;2.78;;;11.20;62.50;;;;;;20846142;28;20399;-78
2020/12/10 01:18:53;;;;;;;6.00;2.72;;;11.20;62.70;;;;;;20816374;28;20031;-78
2020/12/10 01:28:53;;;;;;;3.63;2.15;;;11.20;62.50;;;;;;20827638;28;20116;-79
2020/12/10 01:38:54;;;;;;;4.05;2.08;;;11.20;62.50;;;;;;20840445;28;20426;-79
2020/12/10 01:48:55;;;;;;;4.93;2.57;;;11.20;62.70;;;;;;20855359;28;20107;-78
2020/12/10 01:58:55;;;;;;;5.05;2.60;;;11.20;62.60;;;;;;20816157;28;20914;-78
2020/12/10 02:08:57;;;;;;;2.65;1.38;;;11.30;62.70;;;;;;20830010;28;20029;-78
2020/12/10 02:18:59;;;;;;;5.10;2.63;;;11.20;62.60;;;;;;20827978;28;20463;-78
2020/12/10 02:29:02;;;;;;;5.15;2.10;;;11.20;62.60;;;;;;20851106;28;20049;-78
2020/12/10 02:39:04;;;;;;;7.85;2.60;;;11.20;62.70;;;;;;20850866;28;20136;-78
2020/12/10 02:49:05;;;;;;;4.40;2.53;;;11.20;62.70;;;;;;20863353;28;20069;-78
2020/12/10 02:59:05;;;;;;;4.65;2.03;;;11.20;62.60;;;;;;20857156;28;20439;-78
2020/12/10 03:09:06;;;;;;;3.17;1.80;;;11.20;62.60;;;;;;20848443;28;20068;-78
2020/12/10 03:19:07;;;;;;;7.80;2.40;;;11.20;62.70;;;;;;20825543;28;20395;-78
2020/12/10 03:29:08;;;;;;;6.07;2.67;;;11.20;62.60;;;;;;20853696;28;20614;-78
2020/12/10 03:39:10;;;;;;;9.07;2.75;;;11.20;62.70;;;;;;20837154;28;20041;-79
2020/12/10 03:49:12;;;;;;;3.67;1.40;;;11.20;62.80;;;;;;20816001;28;20046;-79
2020/12/10 03:59:12;;;;;;;4.47;1.83;;;11.20;62.60;;;;;;20856195;28;20041;-78
2020/12/10 04:09:14;;;;;;;7.10;1.80;;;11.20;62.80;;;;;;20834141;28;20568;-79
2020/12/10 04:19:15;;;;;;;10.52;2.30;;;11.10;62.60;;;;;;20850683;28;20112;-79
2020/12/10 04:29:16;;;;;;;3.80;1.85;;;11.20;63.40;;;;;;20832316;28;20475;-78
2020/12/10 04:39:16;;;;;;;6.88;2.10;;;11.20;62.70;;;;;;20848492;28;20065;-79
2020/12/10 04:49:17;;;;;;;4.55;1.98;;;11.20;62.80;;;;;;20807663;28;20051;-79
2020/12/10 04:59:18;;;;;;;3.50;1.30;;;11.20;62.80;;;;;;20823378;28;20092;-79
2020/12/10 05:09:19;;;;;;;7.32;2.40;;;11.10;62.70;;;;;;20826762;28;20720;-78
2020/12/10 05:19:20;;;;;;;10.98;2.25;;;11.20;62.90;;;;;;20829445;28;20479;-79
2020/12/10 05:29:35;;;;;;;5.30;2.33;;;11.30;62.90;;;;;;20848873;28;20063;-79
2020/12/10 05:39:36;;;;;;;5.43;2.33;;;11.40;62.70;;;;;;20832264;28;20026;-76
2020/12/10 05:49:36;;;;;;;6.97;3.35;;;11.70;62.30;;;;;;20831945;28;20034;-82
2020/12/10 05:59:38;;;;;;;7.95;2.67;;;11.80;61.70;;;;;;20824935;28;20045;-78
2020/12/10 06:09:40;;;;;;;4.03;1.98;;;12.00;61.20;;;;;;20848757;28;20516;-78
2020/12/10 06:19:40;;;;;;;4.63;1.85;;;12.00;60.70;;;;;;20804451;28;20128;-79
2020/12/10 06:29:41;;;;;;;6.63;2.28;;;12.10;60.40;;;;;;20865396;28;20064;-79
2020/12/10 06:39:41;;;;;;;5.20;2.78;;;12.10;60.10;;;;;;20825842;28;20050;-84
2020/12/10 06:49:42;;;;;;;3.17;2.05;;;12.00;60.10;;;;;;20797961;28;20144;-78
2020/12/10 06:59:44;;;;;;;3.22;1.75;;;11.90;60.10;;;;;;20852551;28;20044;-78
2020/12/10 07:09:52;;;;;;;4.90;2.65;;;11.70;60.40;;;;;;20832090;28;20095;-78
2020/12/10 07:19:52;;;;;;;4.20;1.23;;;11.60;60.80;;;;;;20807738;28;20036;-80
2020/12/10 07:29:54;;;;;;;8.00;2.33;;;11.50;61.10;;;;;;20862197;28;20051;-82
2020/12/10 07:39:54;;;;;;;2.95;1.45;;;11.50;61.40;;;;;;20835420;28;20069;-79
2020/12/10 07:49:55;;;;;;;5.25;1.92;;;11.40;61.50;;;;;;20782486;28;20022;-81
2020/12/10 08:00:06;;;;;;;7.10;3.65;;;11.40;61.70;;;;;;20833844;28;20079;-81
2020/12/10 08:10:27;;;;;;;4.22;2.72;;;11.40;61.80;;;;;;20830872;28;20108;-81
2020/12/10 08:20:37;;;;;;;3.65;1.63;;;11.40;61.80;;;;;;20822047;28;20033;-80
2020/12/10 08:30:52;;;;;;;4.97;2.42;;;11.40;62.00;;;;;;20846676;28;20120;-76
2020/12/10 08:40:57;;;;;;;5.68;2.13;;;11.40;61.90;;;;;;20855416;28;20056;-74
2020/12/10 08:50:58;;;;;;;10.25;2.78;;;11.40;62.00;;;;;;20845377;28;20037;-73
2020/12/10 09:01:00;;;;;;;5.22;2.08;;;11.40;62.00;;;;;;21246358;23;20169;-74
2020/12/10 09:11:00;;;;;;;6.00;2.47;;;11.40;62.00;;;;;;20969970;28;20475;-75
2020/12/10 09:21:01;;;;;;;6.18;2.08;;;11.40;62.10;;;;;;20923213;28;20041;-74
2020/12/10 09:31:01;;;;;;;1.77;1.35;;;11.40;62.10;;;;;;20958049;28;20116;-74
2020/12/10 09:41:02;;;;;;;8.52;2.30;;;11.40;62.40;;;;;;20949959;28;20043;-74
2020/12/10 09:51:04;;;;;;;8.67;1.97;;;11.40;62.10;;;;;;20915583;28;20460;-74
2020/12/10 10:01:08;;;;;;;2.92;1.50;;;11.30;62.10;;;;;;20915396;28;20617;-75
2020/12/10 10:11:08;;;;;;;3.95;1.90;;;11.30;62.00;;;;;;20949823;28;20047;-75
2020/12/10 10:21:09;;;;;;;4.82;2.42;;;11.30;62.00;;;;;;20929831;28;20514;-74
2020/12/10 10:31:10;;;;;;;3.70;2.53;;;11.30;62.10;;;;;;20933188;28;20037;-74
2020/12/10 10:41:10;;;;;;;4.20;1.85;;;11.30;62.00;;;;;;20953472;28;20047;-74
2020/12/10 10:51:11;;;;;;;3.13;1.50;;;11.30;62.00;;;;;;20967085;28;20097;-74
2020/12/10 11:01:12;;;;;;;5.15;2.30;;;11.30;62.00;;;;;;20939933;28;20063;-74
2020/12/10 11:11:20;;;;;;;2.95;1.73;;;11.30;62.00;;;;;;20989754;28;20047;-74
2020/12/10 11:21:47;;;;;;;5.10;1.80;;;11.40;62.10;;;;;;20968694;28;20041;-76
2020/12/10 11:31:47;;;;;;;3.78;2.28;;;11.40;61.90;;;;;;20959644;28;20494;-77
2020/12/10 11:41:50;;;;;;;7.55;2.65;;;11.40;62.00;;;;;;20939720;28;20040;-74
2020/12/10 11:51:51;;;;;;;12.30;3.25;;;11.30;62.00;;;;;;20974329;28;20610;-77
2020/12/10 12:01:51;;;;;;;7.35;3.10;;;11.40;62.20;;;;;;20956537;28;20047;-76
2020/12/10 12:11:52;;;;;;;6.40;2.00;;;11.30;62.10;;;;;;20909103;28;20033;-83
2020/12/10 12:21:54;;;;;;;5.18;2.50;;;11.30;62.10;;;;;;20974777;28;20040;-83
2020/12/10 12:31:55;;;;;;;2.58;1.65;;;11.30;62.10;;;;;;20973212;28;20087;-82
2020/12/10 12:41:55;;;;;;;5.93;2.80;;;11.30;62.20;;;;;;20893312;28;20437;-77
2020/12/10 12:51:56;;;;;;;7.63;2.63;;;11.30;62.30;;;;;;20948850;28;20032;-79
2020/12/10 13:01:56;;;;;;;4.33;2.67;;;11.30;62.20;;;;;;20957861;28;20302;-75
2020/12/10 13:11:58;;;;;;;2.22;1.48;;;11.30;62.20;;;;;;20969117;28;20348;-76
2020/12/10 13:21:59;;;;;;;3.38;1.73;;;11.30;62.30;;;;;;20982017;28;20510;-76
2020/12/10 13:32:03;;;;;;;9.88;2.85;;;11.20;62.10;;;;;;20941397;28;20123;-74
2020/12/10 13:42:04;;;;;;;9.07;1.85;;;11.30;62.20;;;;;;20941470;28;20094;-71
2020/12/10 13:52:05;;;;;;;4.90;2.38;;;11.30;62.20;;;;;;20912635;28;20423;-76
2020/12/10 14:02:07;;;;;;;4.57;1.90;;;11.20;62.20;;;;;;20915678;28;20135;-80
2020/12/10 14:12:08;;;;;;;2.70;1.50;;;11.30;62.30;;;;;;20928099;28;20100;-77
2020/12/10 14:22:09;;;;;;;6.70;2.55;;;11.20;62.20;;;;;;20941373;28;20127;-78
2020/12/10 14:32:10;;;;;;;5.88;2.67;;;11.20;62.20;;;;;;20956986;28;20094;-79
2020/12/10 14:42:11;;;;;;;7.05;2.72;;;11.20;62.00;;;;;;20976737;28;20033;-81
2020/12/10 14:52:11;;;;;;;13.50;3.20;;;11.20;62.20;;;;;;20956982;28;20039;-73
2020/12/10 15:02:13;;;;;;;11.52;4.10;;;11.40;62.70;;;;;;20956888;28;20665;-76
2020/12/10 15:12:16;;;;;;;10.45;3.40;;;11.20;61.40;;;;;;20964167;28;20179;-77
2020/12/10 15:22:17;;;;;;;7.20;3.50;;;11.30;61.90;;;;;;20940913;28;20043;-77
2020/12/10 15:32:17;;;;;;;8.57;2.85;;;11.40;62.00;;;;;;20912975;28;20032;-76
2020/12/10 15:42:18;;;;;;;13.70;3.65;;;11.60;61.80;;;;;;20941679;28;20390;-77
2020/12/10 15:52:19;;;;;;;6.82;3.13;;;11.80;61.30;;;;;;20935437;28;20033;-76
2020/12/10 16:02:19;;;;;;;9.38;3.45;;;11.90;60.70;;;;;;20926416;28;20045;-81
2020/12/10 16:12:20;;;;;;;13.55;3.22;;;12.00;60.30;;;;;;20932702;28;20067;-75
2020/12/10 16:22:21;;;;;;;10.73;3.08;;;12.00;59.90;;;;;;20960575;28;20028;-76
2020/12/10 16:32:22;;;;;;;5.85;2.78;;;12.00;59.80;;;;;;20955675;28;20123;-75
2020/12/10 16:42:23;;;;;;;8.90;3.47;;;12.00;59.60;;;;;;20920219;28;20379;-75
2020/12/10 16:52:25;;;;;;;8.40;4.05;;;12.10;59.70;;;;;;20934947;28;20068;-76
2020/12/10 17:02:26;;;;;;;12.68;3.97;;;12.10;59.30;;;;;;20942115;28;20080;-75
2020/12/10 17:12:29;;;;;;;4.03;2.10;;;12.00;59.40;;;;;;20914702;28;20040;-74
2020/12/10 17:22:30;;;;;;;7.43;2.38;;;11.80;59.40;;;;;;20936979;28;20044;-78
2020/12/10 17:32:31;;;;;;;12.02;3.10;;;11.70;59.80;;;;;;20928270;28;20159;-77
2020/12/10 17:42:32;;;;;;;7.20;2.85;;;11.60;60.20;;;;;;20972414;28;20039;-76
2020/12/10 17:52:32;;;;;;;6.30;2.47;;;11.50;60.60;;;;;;20945425;28;20036;-71
2020/12/10 18:02:33;;;;;;;10.80;3.17;;;11.50;60.90;;;;;;20948529;28;20179;-76
2020/12/10 18:12:35;;;;;;;8.18;3.05;;;11.40;61.00;;;;;;20951246;28;20033;-74
2020/12/10 18:22:35;;;;;;;8.13;2.90;;;11.40;61.30;;;;;;20935449;28;20401;-72
2020/12/10 18:32:37;;;;;;;12.90;3.40;;;11.40;61.30;;;;;;20948199;28;20029;-75
2020/12/10 18:42:38;;;;;;;6.43;3.60;;;11.40;61.40;;;;;;20925179;28;20367;-75
2020/12/10 18:52:39;;;;;;;7.07;2.47;;;11.40;61.40;;;;;;20923573;28;20036;-76
2020/12/10 19:02:49;;;;;;;5.22;3.08;;;11.30;61.40;;;;;;20901235;28;20048;-77
2020/12/10 19:12:53;;;;;;;6.82;2.60;;;11.40;62.10;;;;;;20935376;28;20079;-76
2020/12/10 19:22:55;;;;;;;4.55;2.60;;;11.30;61.50;;;;;;20945213;28;20060;-75
2020/12/10 19:32:56;;;;;;;6.97;2.22;;;11.30;61.40;;;;;;20916737;28;20052;-77
2020/12/10 19:42:59;;;;;;;8.63;3.38;;;11.30;61.40;;;;;;20938253;28;20037;-80
2020/12/10 19:53:06;;;;;;;7.15;2.90;;;11.30;61.50;;;;;;20890089;28;20040;-76
2020/12/10 20:03:06;;;;;;;5.28;1.73;;;11.30;61.50;;;;;;20922790;28;20055;-81
2020/12/10 20:13:11;;;;;;;4.10;2.30;;;11.30;61.60;;;;;;20915362;28;20036;-80
2020/12/10 20:23:12;;;;;;;6.20;2.47;;;11.30;61.50;;;;;;20921704;28;20402;-80
2020/12/10 20:33:14;;;;;;;5.68;2.60;;;11.30;61.50;;;;;;20978965;28;20058;-79
2020/12/10 20:43:16;;;;;;;4.28;2.03;;;11.30;61.40;;;;;;20941402;28;20033;-78
2020/12/10 20:53:17;;;;;;;5.22;1.98;;;11.30;61.50;;;;;;20939888;28;20033;-80
2020/12/10 21:03:18;;;;;;;6.03;2.17;;;11.30;61.50;;;;;;20933701;28;20447;-78
2020/12/10 21:13:19;;;;;;;8.50;2.55;;;11.20;61.40;;;;;;20944895;28;20063;-78
2020/12/10 21:23:20;;;;;;;6.95;2.55;;;11.20;61.50;;;;;;20924007;28;20049;-79
2020/12/10 21:33:22;;;;;;;2.92;1.50;;;11.20;61.40;;;;;;20945342;28;20033;-78
2020/12/10 21:43:23;;;;;;;6.55;2.17;;;11.20;61.50;;;;;;20902600;28;20040;-79
2020/12/10 21:53:25;;;;;;;5.57;1.63;;;11.20;61.50;;;;;;20906240;28;20356;-79
2020/12/10 22:03:25;;;;;;;4.97;1.75;;;11.20;61.40;;;;;;20943712;28;20040;-79
2020/12/10 22:13:26;;;;;;;3.15;1.52;;;11.20;61.50;;;;;;20885384;28;20048;-79
2020/12/10 22:23:28;;;;;;;4.57;2.33;;;11.20;61.50;;;;;;20902453;28;20170;-78
2020/12/10 22:33:28;;;;;;;3.58;1.83;;;11.20;61.60;;;;;;20908090;28;20115;-78
2020/12/10 22:43:30;;;;;;;3.30;1.88;;;11.20;61.60;;;;;;20985173;28;20047;-79
2020/12/10 22:53:31;;;;;;;2.80;1.77;;;11.10;61.50;;;;;;20953916;28;20032;-78
2020/12/10 23:03:33;;;;;;;5.75;2.38;;;11.20;61.50;;;;;;20951102;28;20431;-79
2020/12/10 23:13:38;;;;;;;4.82;1.95;;;11.20;61.60;;;;;;20989117;28;20032;-78
2020/12/10 23:23:39;;;;;;;7.72;2.60;;;11.20;61.60;;;;;;20979808;28;20036;-78
2020/12/10 23:33:40;;;;;;;4.50;2.40;;;11.20;61.60;;;;;;20965857;28;20036;-77
2020/12/10 23:43:43;;;;;;;4.28;2.22;;;11.20;61.60;;;;;;20972210;28;20295;-79
2020/12/10 23:53:45;;;;;;;3.30;1.92;;;11.10;61.60;;;;;;20986900;28;20118;-80
